Time;durP1;ratioP1;P1;durP2;ratioP2;P2;SDS_P1;SDS_P2;PMS_P1;PMS_P2;Temp;Humidity;BMP_temperature;BMP_pressure;BME280_temperature;BME280_humidity;BME280_pressure;Samples;Min_cycle;Max_cycle;Signal;HPM_P1;HPM_P2
2022/02/24 00:00:08;;;;;;;3.80;1.60;;;11.60;94.00;;;;;;4981224;28;21102;-76
2022/02/24 00:02:44;;;;;;;3.90;1.50;;;11.60;94.10;;;;;;4983535;28;20182;-77
2022/02/24 00:05:10;;;;;;;3.58;1.40;;;11.60;94.20;;;;;;4985134;28;20534;-78
2022/02/24 00:07:36;;;;;;;5.80;1.88;;;11.50;94.20;;;;;;4986593;28;20179;-78
2022/02/24 00:10:05;;;;;;;4.80;1.65;;;11.50;94.30;;;;;;4981420;28;20238;-78
2022/02/24 00:12:31;;;;;;;3.58;1.40;;;11.50;94.30;;;;;;4982198;28;20180;-78
2022/02/24 00:14:58;;;;;;;2.73;1.70;;;11.40;94.30;;;;;;4982939;28;20214;-77
2022/02/24 00:17:23;;;;;;;3.53;1.35;;;11.40;94.50;;;;;;4979488;28;20586;-77
2022/02/24 00:19:49;;;;;;;3.37;1.53;;;11.30;94.50;;;;;;4975168;28;20218;-77
2022/02/24 00:22:15;;;;;;;3.70;1.77;;;11.20;94.50;;;;;;4981790;28;20179;-77
2022/02/24 00:24:41;;;;;;;3.10;1.60;;;11.20;94.70;;;;;;4966961;28;20194;-78
2022/02/24 00:27:07;;;;;;;3.80;1.90;;;11.10;94.70;;;;;;4985832;28;20184;-79
2022/02/24 00:29:33;;;;;;;5.30;2.20;;;11.10;94.90;;;;;;4981452;28;20237;-77
2022/02/24 00:32:02;;;;;;;3.80;1.33;;;11.00;95.00;;;;;;4983838;28;20202;-77
2022/02/24 00:34:27;;;;;;;3.17;1.33;;;11.00;95.30;;;;;;4989256;28;20199;-77
2022/02/24 00:36:54;;;;;;;3.93;1.67;;;11.00;95.50;;;;;;4983925;28;20543;-78
2022/02/24 00:39:21;;;;;;;3.10;1.20;;;10.90;95.70;;;;;;4980551;28;20218;-76
2022/02/24 00:41:47;;;;;;;3.47;2.08;;;10.90;95.90;;;;;;4965384;28;20183;-76
2022/02/24 00:44:13;;;;;;;6.30;1.40;;;10.90;95.90;;;;;;4983754;28;20199;-77
2022/02/24 00:46:40;;;;;;;4.95;1.40;;;10.90;96.00;;;;;;4983993;28;20579;-77
2022/02/24 00:49:07;;;;;;;4.25;1.30;;;10.90;96.10;;;;;;4983111;28;20595;-77
2022/02/24 00:51:34;;;;;;;2.92;1.10;;;10.90;96.30;;;;;;4990484;28;20180;-77
2022/02/24 00:54:01;;;;;;;2.38;1.10;;;10.90;96.40;;;;;;4985134;28;20175;-78
2022/02/24 00:56:26;;;;;;;6.85;1.30;;;10.90;96.50;;;;;;4985679;28;20197;-77
2022/02/24 00:58:52;;;;;;;3.50;1.10;;;10.90;96.60;;;;;;4990362;28;20167;-78
2022/02/24 01:01:18;;;;;;;7.07;2.40;;;10.90;96.70;;;;;;4979529;28;20271;-78
2022/02/24 01:03:44;;;;;;;6.17;1.67;;;10.90;96.80;;;;;;4979777;28;20225;-78
2022/02/24 01:06:10;;;;;;;4.68;2.30;;;10.90;96.80;;;;;;4963787;28;20617;-78
2022/02/24 01:08:36;;;;;;;7.13;2.20;;;10.90;96.90;;;;;;4980240;28;20184;-78
2022/02/24 01:11:03;;;;;;;4.70;2.10;;;10.90;97.20;;;;;;4988800;28;20955;-78
2022/02/24 01:13:28;;;;;;;4.55;1.85;;;10.90;97.30;;;;;;4981419;28;20214;-78
2022/02/24 01:15:54;;;;;;;5.50;2.63;;;10.90;97.40;;;;;;4987912;28;20229;-78
2022/02/24 01:18:20;;;;;;;4.97;2.03;;;10.90;97.50;;;;;;4983638;28;20579;-78
2022/02/24 01:20:46;;;;;;;3.80;1.50;;;10.90;97.60;;;;;;4980149;28;20295;-78
2022/02/24 01:23:12;;;;;;;4.83;1.80;;;10.90;97.60;;;;;;4982399;28;20179;-78
2022/02/24 01:25:38;;;;;;;4.53;1.40;;;10.90;97.70;;;;;;4979949;28;20175;-78
2022/02/24 01:28:03;;;;;;;3.00;1.10;;;10.90;97.80;;;;;;4982458;28;20617;-78
2022/02/24 01:30:30;;;;;;;3.83;1.37;;;10.80;97.90;;;;;;4982078;28;20294;-78
2022/02/24 01:32:56;;;;;;;5.68;1.55;;;10.90;98.10;;;;;;4981316;28;20571;-78
2022/02/24 01:35:22;;;;;;;4.35;1.83;;;10.80;98.20;;;;;;4983617;28;20175;-78
2022/02/24 01:37:48;;;;;;;2.10;1.30;;;10.80;98.20;;;;;;4980382;28;20723;-78
2022/02/24 01:40:15;;;;;;;3.97;1.60;;;10.80;98.20;;;;;;4973592;28;20238;-78
2022/02/24 01:42:41;;;;;;;7.15;1.83;;;10.80;98.40;;;;;;4981057;28;20935;-78
2022/02/24 01:45:09;;;;;;;3.25;1.50;;;10.80;98.50;;;;;;4982075;28;20199;-78
2022/02/24 01:47:35;;;;;;;3.65;1.45;;;10.80;98.50;;;;;;4981784;28;20286;-78
2022/02/24 01:50:02;;;;;;;4.25;1.10;;;10.80;98.60;;;;;;4980294;28;20204;-78
2022/02/24 01:52:28;;;;;;;3.33;1.58;;;10.80;98.70;;;;;;4990979;28;20179;-78
2022/02/24 01:54:54;;;;;;;3.67;1.50;;;10.80;99.00;;;;;;4976715;28;20214;-78
2022/02/24 01:57:21;;;;;;;5.23;1.50;;;10.80;98.90;;;;;;4984483;28;20590;-78
2022/02/24 01:59:47;;;;;;;6.00;1.50;;;10.80;99.00;;;;;;4991140;28;20194;-78
2022/02/24 02:02:16;;;;;;;3.23;1.30;;;10.80;99.10;;;;;;4988704;28;20186;-78
2022/02/24 02:04:42;;;;;;;2.75;1.25;;;10.80;99.10;;;;;;4984270;28;20179;-78
2022/02/24 02:07:09;;;;;;;2.47;1.20;;;10.80;99.20;;;;;;4984357;28;20274;-78
2022/02/24 02:09:35;;;;;;;3.63;1.17;;;10.90;99.30;;;;;;4986211;28;20218;-78
2022/02/24 02:12:02;;;;;;;3.65;1.20;;;10.90;99.30;;;;;;4985359;28;20241;-78
2022/02/24 02:14:28;;;;;;;3.35;1.70;;;10.90;99.40;;;;;;4986229;28;20183;-78
2022/02/24 02:16:54;;;;;;;5.47;1.37;;;10.80;99.50;;;;;;4984223;28;20198;-78
2022/02/24 02:19:20;;;;;;;3.17;1.70;;;10.90;99.60;;;;;;4990811;28;20834;-78
2022/02/24 02:21:46;;;;;;;6.05;1.27;;;10.90;99.70;;;;;;4966319;28;20547;-78
2022/02/24 02:24:13;;;;;;;4.57;1.45;;;10.80;99.90;;;;;;4968458;28;20178;-78
2022/02/24 02:26:39;;;;;;;4.40;1.17;;;10.90;99.80;;;;;;4967663;28;20183;-78
2022/02/24 02:29:08;;;;;;;3.75;1.55;;;10.80;99.80;;;;;;4984433;28;20195;-78
2022/02/24 02:31:35;;;;;;;4.90;1.55;;;10.80;99.90;;;;;;4985245;28;20253;-78
2022/02/24 02:34:06;;;;;;;3.47;1.15;;;10.80;99.90;;;;;;4982023;28;20207;-77
2022/02/24 02:36:33;;;;;;;1.90;1.10;;;10.80;99.90;;;;;;4985591;28;20182;-78
2022/02/24 02:38:58;;;;;;;2.50;1.00;;;10.80;99.90;;;;;;4984156;28;20211;-79
2022/02/24 02:41:29;;;;;;;2.50;1.10;;;10.80;99.90;;;;;;4993312;28;20238;-79
2022/02/24 02:43:55;;;;;;;5.20;1.42;;;10.80;99.90;;;;;;4990182;28;20719;-76
2022/02/24 02:46:22;;;;;;;5.35;1.15;;;10.80;99.90;;;;;;4986029;28;20690;-77
2022/02/24 02:48:47;;;;;;;6.18;1.48;;;10.80;99.90;;;;;;4986353;28;20179;-77
2022/02/24 02:51:13;;;;;;;6.33;1.67;;;10.80;99.90;;;;;;4983086;28;20199;-77
2022/02/24 02:53:40;;;;;;;4.07;1.23;;;10.80;99.90;;;;;;4960444;28;20175;-78
2022/02/24 02:56:06;;;;;;;4.72;1.45;;;10.80;99.90;;;;;;4990481;28;20175;-78
2022/02/24 02:58:32;;;;;;;4.37;1.33;;;10.80;99.90;;;;;;4982883;28;20577;-77
2022/02/24 03:00:58;;;;;;;3.53;1.70;;;10.80;99.90;;;;;;4983965;28;20613;-77
2022/02/24 03:03:24;;;;;;;4.13;1.50;;;10.80;99.90;;;;;;4982451;28;20213;-78
2022/02/24 03:05:51;;;;;;;4.72;1.10;;;10.90;99.90;;;;;;4983411;28;20207;-77
2022/02/24 03:08:17;;;;;;;3.38;1.13;;;10.80;99.90;;;;;;4967324;28;20270;-77
2022/02/24 03:10:43;;;;;;;4.40;1.05;;;10.90;99.90;;;;;;4981610;28;20218;-78
2022/02/24 03:13:10;;;;;;;4.25;1.20;;;10.90;99.90;;;;;;4986243;28;20175;-76
2022/02/24 03:15:36;;;;;;;2.20;1.33;;;10.90;99.90;;;;;;4982453;28;20678;-78
2022/02/24 03:18:02;;;;;;;2.15;1.00;;;10.90;99.90;;;;;;4982218;28;20176;-77
2022/02/24 03:20:31;;;;;;;5.60;1.10;;;10.90;99.90;;;;;;4983045;28;20195;-77
2022/02/24 03:23:01;;;;;;;3.65;1.20;;;10.90;99.90;;;;;;4967431;28;20190;-78
2022/02/24 03:25:28;;;;;;;3.55;1.10;;;10.90;99.90;;;;;;4981238;28;20194;-77
2022/02/24 03:27:54;;;;;;;5.22;1.20;;;10.90;99.90;;;;;;4985818;28;20220;-78
2022/02/24 03:30:21;;;;;;;2.88;1.20;;;10.90;99.90;;;;;;4965773;28;20208;-78
2022/02/24 03:32:47;;;;;;;7.07;1.50;;;10.90;99.90;;;;;;4957102;28;20180;-77
2022/02/24 03:35:13;;;;;;;4.70;1.63;;;10.90;99.90;;;;;;4982300;28;20226;-77
2022/02/24 03:37:39;;;;;;;6.40;1.10;;;10.90;99.90;;;;;;4984934;28;20609;-77
2022/02/24 03:40:07;;;;;;;3.25;1.20;;;10.90;99.90;;;;;;4988920;28;20199;-78
2022/02/24 03:42:33;;;;;;;3.20;1.20;;;10.90;99.90;;;;;;4984085;28;20191;-77
2022/02/24 03:45:00;;;;;;;3.78;1.17;;;10.90;99.90;;;;;;4982023;28;20202;-77
2022/02/24 03:47:26;;;;;;;5.38;1.30;;;10.90;99.90;;;;;;4986354;28;20194;-77
2022/02/24 03:49:52;;;;;;;2.93;1.30;;;10.90;99.90;;;;;;4981365;28;20546;-78
2022/02/24 03:52:19;;;;;;;3.55;1.10;;;10.90;99.90;;;;;;4964080;28;20179;-77
2022/02/24 03:54:45;;;;;;;6.88;1.52;;;10.90;99.90;;;;;;4984344;28;20183;-78
2022/02/24 03:57:11;;;;;;;5.60;1.70;;;10.90;99.90;;;;;;4982436;28;20659;-78
2022/02/24 03:59:38;;;;;;;2.40;1.00;;;10.90;99.90;;;;;;4984802;28;20614;-78
2022/02/24 04:02:07;;;;;;;3.53;1.13;;;10.90;99.90;;;;;;4982274;28;20179;-78
2022/02/24 04:04:34;;;;;;;6.97;1.40;;;10.90;99.90;;;;;;4982577;28;20659;-78
2022/02/24 04:07:00;;;;;;;4.60;1.52;;;10.90;99.90;;;;;;4984112;28;20220;-78
2022/02/24 04:09:26;;;;;;;4.65;1.13;;;10.90;99.90;;;;;;4999373;28;20225;-78
2022/02/24 04:11:52;;;;;;;4.23;1.47;;;10.90;99.90;;;;;;4988152;28;20632;-78
2022/02/24 04:14:18;;;;;;;3.63;1.03;;;10.90;99.90;;;;;;4983116;28;20566;-77
2022/02/24 04:16:44;;;;;;;5.43;1.93;;;10.90;99.90;;;;;;4982072;28;20179;-77
2022/02/24 04:19:10;;;;;;;2.60;1.13;;;10.90;99.90;;;;;;4982282;28;20603;-77
2022/02/24 04:21:36;;;;;;;4.03;1.30;;;10.90;99.90;;;;;;4984003;28;20175;-77
2022/02/24 04:24:03;;;;;;;2.97;1.17;;;10.90;99.90;;;;;;4981287;28;20242;-76
2022/02/24 04:26:29;;;;;;;5.88;1.27;;;10.90;99.90;;;;;;4984177;28;20185;-77
2022/02/24 04:28:56;;;;;;;2.85;0.90;;;10.90;99.90;;;;;;4982481;28;20263;-77
2022/02/24 04:31:21;;;;;;;2.47;1.63;;;10.90;99.90;;;;;;4983248;28;20310;-77
2022/02/24 04:33:47;;;;;;;4.60;1.10;;;10.90;99.90;;;;;;4982431;28;20207;-77
2022/02/24 04:36:13;;;;;;;2.67;1.20;;;11.00;99.90;;;;;;4982869;28;20609;-77
2022/02/24 04:38:39;;;;;;;3.70;1.10;;;11.00;99.90;;;;;;4983694;28;21125;-77
2022/02/24 04:41:05;;;;;;;4.00;0.97;;;11.10;99.90;;;;;;4963642;28;20606;-77
2022/02/24 04:43:30;;;;;;;4.80;1.13;;;11.10;99.90;;;;;;4982621;28;20950;-77
2022/02/24 04:45:56;;;;;;;5.00;1.10;;;11.10;99.90;;;;;;4982761;28;21084;-78
2022/02/24 04:48:23;;;;;;;3.67;1.10;;;11.10;99.90;;;;;;4981819;28;20570;-77
2022/02/24 04:50:49;;;;;;;2.47;0.95;;;11.20;99.90;;;;;;4981811;28;20222;-77
2022/02/24 04:53:16;;;;;;;3.80;1.50;;;11.20;99.90;;;;;;4981465;28;20172;-77
2022/02/24 04:55:42;;;;;;;4.50;1.20;;;11.20;99.90;;;;;;4981051;28;20618;-77
2022/02/24 04:58:08;;;;;;;2.28;1.13;;;11.30;99.90;;;;;;4994717;28;20183;-77
2022/02/24 05:00:34;;;;;;;3.53;0.90;;;11.30;99.90;;;;;;4993780;28;20196;-78
2022/02/24 05:03:00;;;;;;;2.83;1.15;;;11.30;99.90;;;;;;4992999;28;20628;-77
2022/02/24 05:05:26;;;;;;;4.77;1.13;;;11.40;99.90;;;;;;4988235;28;20198;-77
2022/02/24 05:07:52;;;;;;;4.80;1.17;;;11.40;99.90;;;;;;4983528;28;20582;-78
2022/02/24 05:10:18;;;;;;;4.18;1.75;;;11.40;99.90;;;;;;4980309;28;20303;-77
2022/02/24 05:12:44;;;;;;;2.97;1.30;;;11.40;99.90;;;;;;4983961;28;20265;-77
2022/02/24 05:15:10;;;;;;;5.67;1.27;;;11.40;99.90;;;;;;4980530;28;20702;-77
2022/02/24 05:17:39;;;;;;;4.77;1.07;;;11.40;99.90;;;;;;4982742;28;20579;-77
2022/02/24 05:20:09;;;;;;;4.28;1.25;;;11.50;99.90;;;;;;4982966;28;21179;-77
2022/02/24 05:22:39;;;;;;;2.80;1.20;;;11.50;99.90;;;;;;4984680;28;20202;-77
2022/02/24 05:25:06;;;;;;;4.38;1.17;;;11.50;99.90;;;;;;4985329;28;20175;-77
2022/02/24 05:27:32;;;;;;;4.80;1.10;;;11.50;99.90;;;;;;4981370;28;20270;-77
2022/02/24 05:29:58;;;;;;;1.40;0.80;;;11.50;99.90;;;;;;4981009;28;20293;-78
2022/02/24 05:32:23;;;;;;;4.60;1.27;;;11.50;99.90;;;;;;4981380;28;20187;-77
2022/02/24 05:34:49;;;;;;;5.30;1.53;;;11.50;99.90;;;;;;4983745;28;20582;-78
2022/02/24 05:37:15;;;;;;;4.40;1.40;;;11.40;99.90;;;;;;4980513;28;20274;-78
2022/02/24 05:39:41;;;;;;;4.70;1.20;;;11.40;99.90;;;;;;4983000;28;20264;-78
2022/02/24 05:42:07;;;;;;;4.17;2.13;;;11.30;99.90;;;;;;4972576;28;20246;-77
2022/02/24 05:44:33;;;;;;;4.55;1.35;;;11.30;99.90;;;;;;4980893;28;20601;-77
2022/02/24 05:46:59;;;;;;;3.60;1.33;;;11.20;99.90;;;;;;4982517;28;20198;-77
2022/02/24 05:49:24;;;;;;;3.43;1.20;;;11.10;99.90;;;;;;4970605;28;20714;-77
2022/02/24 05:51:50;;;;;;;2.53;1.70;;;11.10;99.90;;;;;;4983370;28;20191;-77
2022/02/24 05:54:16;;;;;;;3.87;1.50;;;11.20;99.90;;;;;;4979250;28;20579;-77
2022/02/24 05:56:42;;;;;;;6.70;1.40;;;11.10;99.90;;;;;;4983376;28;20190;-77
2022/02/24 05:59:07;;;;;;;3.30;1.63;;;11.20;99.90;;;;;;4980449;28;20199;-78
2022/02/24 06:01:33;;;;;;;2.47;1.77;;;11.10;99.90;;;;;;4985934;28;20179;-77
2022/02/24 06:03:59;;;;;;;3.50;0.93;;;11.20;99.90;;;;;;4982865;28;20179;-77
2022/02/24 06:06:24;;;;;;;3.90;1.30;;;11.20;99.90;;;;;;4979649;28;20184;-77
2022/02/24 06:08:51;;;;;;;2.75;0.98;;;11.20;99.90;;;;;;4982502;28;20197;-77
2022/02/24 06:11:17;;;;;;;4.33;1.20;;;11.30;99.90;;;;;;4978697;28;20215;-77
2022/02/24 06:13:43;;;;;;;2.90;1.33;;;11.30;99.90;;;;;;4981648;28;20176;-77
2022/02/24 06:16:08;;;;;;;3.83;1.10;;;11.30;99.90;;;;;;4981457;28;20164;-77
2022/02/24 06:18:34;;;;;;;3.47;1.20;;;11.40;99.90;;;;;;4980471;28;20171;-77
2022/02/24 06:21:00;;;;;;;2.67;1.00;;;11.40;99.90;;;;;;4982174;28;20198;-78
2022/02/24 06:23:27;;;;;;;3.03;1.40;;;11.40;99.90;;;;;;4979244;28;20286;-77
2022/02/24 06:25:53;;;;;;;2.93;0.97;;;11.40;99.90;;;;;;4982151;28;20703;-77
2022/02/24 06:28:18;;;;;;;2.88;1.08;;;11.40;99.90;;;;;;4962648;28;20590;-77
2022/02/24 06:30:44;;;;;;;4.70;1.37;;;11.40;99.90;;;;;;4982506;28;20213;-78
2022/02/24 06:33:11;;;;;;;4.00;1.25;;;11.40;99.90;;;;;;4980859;28;20546;-78
2022/02/24 06:35:37;;;;;;;4.15;1.00;;;11.40;99.90;;;;;;4982147;28;20180;-77
2022/02/24 06:38:04;;;;;;;3.93;1.40;;;11.40;99.90;;;;;;4987812;28;20179;-79
2022/02/24 06:40:30;;;;;;;4.65;1.40;;;11.40;99.90;;;;;;4986925;28;20649;-77
2022/02/24 06:42:57;;;;;;;5.35;1.75;;;11.40;99.90;;;;;;4993764;28;20286;-77
2022/02/24 06:45:23;;;;;;;5.22;1.20;;;11.50;99.90;;;;;;4993711;28;20286;-77
2022/02/24 06:47:49;;;;;;;2.72;1.30;;;11.50;99.90;;;;;;4993847;28;20246;-77
2022/02/24 06:50:15;;;;;;;3.50;1.30;;;11.50;99.90;;;;;;4986636;28;20218;-77
2022/02/24 06:52:42;;;;;;;5.13;1.30;;;11.50;99.90;;;;;;4972595;28;20554;-77
2022/02/24 06:55:09;;;;;;;4.13;1.30;;;11.50;99.90;;;;;;4988269;28;20176;-77
2022/02/24 06:57:39;;;;;;;3.70;1.20;;;11.50;99.90;;;;;;4983080;28;20271;-77
2022/02/24 07:00:06;;;;;;;4.10;1.67;;;11.60;99.90;;;;;;4985239;28;20242;-77
2022/02/24 07:02:32;;;;;;;4.32;1.40;;;11.60;99.90;;;;;;4984808;28;20176;-77
2022/02/24 07:04:58;;;;;;;4.10;1.43;;;11.60;99.90;;;;;;4983748;28;20715;-78
2022/02/24 07:07:23;;;;;;;2.60;1.00;;;11.60;99.90;;;;;;4968526;28;20945;-77
2022/02/24 07:09:50;;;;;;;4.38;1.13;;;11.70;99.90;;;;;;4980710;28;20642;-77
2022/02/24 07:12:16;;;;;;;3.30;1.63;;;11.70;99.90;;;;;;4952177;28;20873;-77
2022/02/24 07:14:42;;;;;;;6.10;1.40;;;11.80;99.90;;;;;;4951123;28;20583;-77
2022/02/24 07:17:07;;;;;;;4.83;1.70;;;11.80;99.90;;;;;;4988081;28;20534;-77
2022/02/24 07:19:33;;;;;;;4.63;1.20;;;11.90;99.90;;;;;;4983780;28;20227;-77
2022/02/24 07:21:59;;;;;;;5.30;1.17;;;11.90;99.90;;;;;;4983498;28;20310;-77
2022/02/24 07:24:25;;;;;;;5.27;1.80;;;11.90;99.90;;;;;;4981186;28;21006;-77
2022/02/24 07:26:51;;;;;;;2.90;1.33;;;12.00;99.90;;;;;;4981965;28;20179;-78
2022/02/24 07:29:17;;;;;;;3.33;1.63;;;12.00;99.90;;;;;;4981545;28;20818;-77
2022/02/24 07:31:43;;;;;;;5.03;1.93;;;12.10;99.90;;;;;;4982773;28;20210;-77
2022/02/24 07:34:09;;;;;;;4.17;1.73;;;12.10;99.90;;;;;;4985653;28;20661;-77
2022/02/24 07:36:39;;;;;;;3.13;1.30;;;12.10;99.90;;;;;;4983474;28;20668;-77
2022/02/24 07:39:10;;;;;;;2.70;1.10;;;12.20;99.90;;;;;;4981781;28;20203;-77
2022/02/24 07:41:38;;;;;;;3.13;1.60;;;12.30;99.90;;;;;;4983976;28;20215;-77
2022/02/24 07:44:04;;;;;;;6.05;1.73;;;12.30;99.90;;;;;;4982412;28;20673;-77
2022/02/24 07:46:30;;;;;;;3.40;1.58;;;12.30;99.90;;;;;;4982786;28;20507;-77
2022/02/24 07:48:56;;;;;;;6.03;1.10;;;12.40;99.90;;;;;;4966641;28;20190;-77
2022/02/24 07:51:22;;;;;;;3.87;1.90;;;12.40;99.90;;;;;;4981401;28;21044;-77
2022/02/24 07:53:47;;;;;;;3.07;1.40;;;12.50;99.90;;;;;;4986703;28;20175;-77
2022/02/24 07:56:13;;;;;;;7.00;1.30;;;12.50;99.90;;;;;;4983710;28;20625;-76
2022/02/24 07:58:39;;;;;;;3.80;1.40;;;12.60;99.90;;;;;;4985262;28;20180;-77
2022/02/24 08:01:05;;;;;;;2.43;1.20;;;12.70;99.90;;;;;;4990438;28;20183;-77
2022/02/24 08:03:31;;;;;;;4.15;1.20;;;12.80;99.90;;;;;;4980750;28;20211;-76
2022/02/24 08:05:57;;;;;;;4.23;1.43;;;12.90;99.90;;;;;;4991435;28;20206;-77
2022/02/24 08:08:24;;;;;;;2.83;1.30;;;12.90;99.90;;;;;;4968020;28;20590;-77
2022/02/24 08:10:51;;;;;;;4.78;1.25;;;13.00;99.90;;;;;;4981123;28;20235;-77
2022/02/24 08:13:16;;;;;;;4.80;1.38;;;13.00;99.90;;;;;;4984948;28;20222;-76
2022/02/24 08:15:43;;;;;;;5.53;1.27;;;13.10;99.90;;;;;;4987177;28;20179;-77
2022/02/24 08:18:09;;;;;;;5.20;1.35;;;13.10;99.90;;;;;;4954969;28;21190;-75
2022/02/24 08:20:35;;;;;;;5.15;1.73;;;13.10;99.90;;;;;;4983771;28;20203;-78
2022/02/24 08:23:03;;;;;;;5.27;1.37;;;13.10;99.90;;;;;;4981298;28;20270;-76
2022/02/24 08:25:31;;;;;;;4.25;1.23;;;13.10;99.90;;;;;;4970807;28;21200;-76
2022/02/24 08:27:57;;;;;;;3.83;1.60;;;13.10;99.90;;;;;;4958051;28;20270;-76
2022/02/24 08:30:23;;;;;;;8.15;1.17;;;13.10;99.90;;;;;;4984730;28;20213;-78
2022/02/24 08:32:51;;;;;;;4.78;1.40;;;13.20;99.90;;;;;;4981248;28;20254;-77
2022/02/24 08:35:18;;;;;;;5.00;1.40;;;13.10;99.90;;;;;;5003112;28;20573;-77
2022/02/24 08:37:47;;;;;;;7.18;1.50;;;13.10;99.90;;;;;;4975366;28;20186;-76
2022/02/24 08:40:14;;;;;;;3.20;1.27;;;13.20;99.90;;;;;;4979742;28;20203;-76
2022/02/24 08:42:41;;;;;;;4.13;1.52;;;13.10;99.90;;;;;;4991651;28;20529;-76
2022/02/24 08:45:08;;;;;;;2.25;1.25;;;13.10;99.90;;;;;;4990580;28;20280;-76
2022/02/24 08:47:34;;;;;;;4.85;1.17;;;13.10;99.90;;;;;;4983665;28;20182;-76
2022/02/24 08:50:01;;;;;;;6.03;1.60;;;13.20;99.90;;;;;;4984827;28;20683;-77
2022/02/24 08:52:27;;;;;;;3.40;1.50;;;13.20;99.90;;;;;;4982641;28;20643;-77
2022/02/24 08:54:53;;;;;;;3.50;1.67;;;13.10;99.90;;;;;;4987166;28;20175;-76
2022/02/24 08:57:19;;;;;;;4.07;1.20;;;13.10;99.90;;;;;;4965610;28;20199;-76
2022/02/24 08:59:45;;;;;;;4.40;1.70;;;13.10;99.90;;;;;;4979498;28;20563;-76
2022/02/24 09:02:10;;;;;;;6.00;1.83;;;13.10;99.90;;;;;;4988929;28;20681;-76
2022/02/24 09:04:36;;;;;;;4.47;1.07;;;13.10;99.90;;;;;;4965531;28;20187;-77
2022/02/24 09:07:03;;;;;;;4.20;1.20;;;13.10;99.90;;;;;;4985054;28;20182;-77
2022/02/24 09:09:29;;;;;;;6.03;1.60;;;13.10;99.90;;;;;;4983054;28;20235;-77
2022/02/24 09:11:55;;;;;;;5.33;1.50;;;13.10;99.90;;;;;;4981895;28;20632;-77
2022/02/24 09:14:21;;;;;;;3.73;1.73;;;13.10;99.90;;;;;;4983117;28;20556;-77
2022/02/24 09:16:46;;;;;;;3.58;1.45;;;13.00;99.90;;;;;;4988597;28;20587;-77
2022/02/24 09:19:12;;;;;;;3.70;1.40;;;13.00;99.90;;;;;;4985473;28;20194;-77
2022/02/24 09:21:39;;;;;;;2.80;1.40;;;13.00;99.90;;;;;;4981011;28;20186;-76
2022/02/24 09:24:06;;;;;;;3.22;1.20;;;13.00;99.90;;;;;;4982610;28;20602;-77
2022/02/24 09:26:33;;;;;;;4.45;1.65;;;13.00;99.90;;;;;;4980477;28;20183;-77
2022/02/24 09:29:03;;;;;;;3.75;1.33;;;12.90;99.90;;;;;;4987679;28;20192;-77
2022/02/24 09:31:29;;;;;;;4.93;1.42;;;12.90;99.90;;;;;;4981744;28;20214;-77
2022/02/24 09:33:54;;;;;;;4.33;1.50;;;12.80;99.90;;;;;;4980568;28;20168;-78
2022/02/24 09:36:20;;;;;;;3.40;1.47;;;12.90;99.90;;;;;;4981619;28;20726;-77
2022/02/24 09:38:46;;;;;;;6.77;2.10;;;12.90;99.90;;;;;;4980755;28;20752;-77
2022/02/24 09:41:13;;;;;;;2.57;1.30;;;12.80;99.90;;;;;;4980042;28;20981;-77
2022/02/24 09:43:39;;;;;;;4.28;1.88;;;12.80;99.90;;;;;;4986390;28;20183;-77
2022/02/24 09:46:10;;;;;;;4.30;1.93;;;12.70;99.90;;;;;;4982548;28;20217;-76
2022/02/24 09:48:42;;;;;;;5.30;1.60;;;12.80;99.90;;;;;;4980432;28;20578;-77
2022/02/24 09:51:14;;;;;;;4.60;1.33;;;12.80;99.90;;;;;;4981282;28;20522;-76
2022/02/24 09:53:41;;;;;;;7.85;1.90;;;12.80;99.90;;;;;;4979800;28;20242;-77
2022/02/24 09:56:13;;;;;;;3.90;1.80;;;12.80;99.90;;;;;;4982981;28;20170;-77
2022/02/24 09:58:39;;;;;;;4.18;1.73;;;12.80;99.90;;;;;;4980719;28;20179;-76
2022/02/24 10:01:05;;;;;;;3.93;1.33;;;12.80;99.90;;;;;;4979608;28;20222;-76
2022/02/24 10:03:33;;;;;;;3.47;1.87;;;12.90;99.90;;;;;;4965572;28;20191;-76
2022/02/24 10:06:01;;;;;;;4.85;1.60;;;13.00;99.90;;;;;;4978639;28;20709;-77
2022/02/24 10:08:33;;;;;;;3.75;1.75;;;13.00;99.90;;;;;;4982122;28;20233;-76
2022/02/24 10:11:00;;;;;;;3.88;1.80;;;13.10;99.90;;;;;;4989536;28;20207;-76
2022/02/24 10:13:27;;;;;;;3.55;1.90;;;13.30;99.90;;;;;;4971752;28;20212;-79
2022/02/24 10:16:02;;;;;;;4.45;1.58;;;13.30;99.90;;;;;;4986855;28;20179;-79
2022/02/24 10:18:33;;;;;;;4.55;1.80;;;13.30;99.90;;;;;;4973141;28;20179;-78
2022/02/24 10:21:01;;;;;;;5.07;2.05;;;13.40;99.90;;;;;;4994504;28;20215;-79
2022/02/24 10:23:36;;;;;;;2.92;1.83;;;13.40;99.90;;;;;;4988306;28;20270;-79
2022/02/24 10:26:08;;;;;;;4.03;1.63;;;13.40;99.90;;;;;;4988660;28;20261;-79
2022/02/24 10:28:45;;;;;;;4.32;1.30;;;13.40;99.90;;;;;;4971371;28;20194;-78
2022/02/24 10:31:23;;;;;;;3.03;1.33;;;13.30;99.90;;;;;;5002652;28;20203;-78
2022/02/24 10:33:52;;;;;;;3.97;1.38;;;13.30;99.90;;;;;;4986507;28;20518;-78
2022/02/24 10:36:25;;;;;;;5.30;1.92;;;13.30;99.90;;;;;;5001754;28;20245;-79
2022/02/24 10:39:09;;;;;;;4.80;1.88;;;13.30;99.90;;;;;;4993379;28;20179;-78
2022/02/24 10:41:46;;;;;;;2.45;1.38;;;13.40;99.90;;;;;;4991022;28;20735;-78
2022/02/24 10:44:14;;;;;;;3.35;1.83;;;13.40;99.90;;;;;;4993994;28;20198;-78
2022/02/24 10:46:43;;;;;;;4.70;1.33;;;13.50;99.90;;;;;;5013085;28;20645;-78
2022/02/24 10:49:09;;;;;;;3.05;1.65;;;13.40;99.90;;;;;;4998929;28;20195;-79
2022/02/24 10:51:36;;;;;;;3.40;1.40;;;13.40;99.90;;;;;;5002448;28;20209;-79
2022/02/24 10:54:10;;;;;;;4.15;1.83;;;13.40;99.90;;;;;;4998685;28;20188;-79
2022/02/24 10:56:44;;;;;;;6.40;2.03;;;13.40;99.90;;;;;;5000444;28;20171;-78
2022/02/24 10:59:12;;;;;;;3.17;1.58;;;13.40;99.90;;;;;;4991666;28;20202;-78
2022/02/24 11:01:40;;;;;;;3.92;1.80;;;13.50;99.90;;;;;;5006358;28;20196;-78
2022/02/24 11:04:06;;;;;;;4.22;1.65;;;13.50;99.90;;;;;;4993962;28;20183;-78
2022/02/24 11:06:37;;;;;;;3.50;1.77;;;13.50;99.90;;;;;;4985855;28;20178;-78
2022/02/24 11:09:05;;;;;;;2.83;1.77;;;13.50;99.90;;;;;;4996248;28;20222;-78
2022/02/24 11:11:34;;;;;;;4.90;2.03;;;13.60;99.90;;;;;;5001014;28;20214;-78
2022/02/24 11:14:02;;;;;;;4.80;1.48;;;13.60;99.90;;;;;;4998677;28;20257;-78
2022/02/24 11:16:29;;;;;;;3.58;1.50;;;13.70;99.90;;;;;;4998338;28;20187;-78
2022/02/24 11:18:58;;;;;;;2.63;1.58;;;13.60;99.90;;;;;;4985453;28;20251;-78
2022/02/24 11:21:25;;;;;;;3.30;1.70;;;13.70;99.90;;;;;;4985002;28;20654;-77
2022/02/24 11:23:53;;;;;;;2.75;1.55;;;13.70;99.90;;;;;;4987193;28;20187;-78
2022/02/24 11:26:30;;;;;;;4.10;1.70;;;13.70;99.90;;;;;;4983478;28;20198;-78
2022/02/24 11:29:18;;;;;;;3.88;1.70;;;13.70;99.90;;;;;;4965680;28;20539;-78
2022/02/24 11:32:12;;;;;;;2.70;1.65;;;13.70;99.90;;;;;;4991644;28;20249;-78
2022/02/24 11:35:17;;;;;;;4.07;1.88;;;13.80;99.90;;;;;;4991431;28;20204;-78
2022/02/24 11:37:47;;;;;;;4.80;1.85;;;13.80;99.90;;;;;;4993985;28;20597;-78
2022/02/24 11:40:25;;;;;;;3.05;1.73;;;13.80;99.90;;;;;;4973341;28;20191;-78
2022/02/24 11:43:09;;;;;;;2.38;1.45;;;13.90;99.90;;;;;;4994675;28;20210;-78
2022/02/24 11:45:41;;;;;;;3.23;1.60;;;13.90;99.90;;;;;;5014381;28;20216;-78
2022/02/24 11:48:12;;;;;;;3.43;1.60;;;13.90;99.90;;;;;;4975010;28;20593;-78
2022/02/24 11:50:57;;;;;;;3.73;1.43;;;14.00;99.90;;;;;;4986773;28;20675;-77
2022/02/24 11:53:26;;;;;;;1.80;1.10;;;13.90;99.90;;;;;;4987329;28;20590;-77
2022/02/24 11:56:13;;;;;;;2.58;1.70;;;14.00;99.90;;;;;;4981164;28;21191;-77
2022/02/24 11:58:46;;;;;;;2.90;1.25;;;14.00;99.90;;;;;;4973689;28;20238;-77
2022/02/24 12:01:29;;;;;;;2.37;1.07;;;14.00;99.90;;;;;;4987558;28;20584;-78
2022/02/24 12:04:22;;;;;;;2.30;0.90;;;13.90;99.90;;;;;;4990462;28;20614;-78
2022/02/24 12:06:53;;;;;;;1.60;0.93;;;13.90;99.90;;;;;;5005543;28;20183;-77
2022/02/24 12:09:32;;;;;;;1.60;0.90;;;13.90;99.90;;;;;;4988414;28;21065;-77
2022/02/24 12:12:13;;;;;;;2.53;0.93;;;13.90;99.90;;;;;;4985878;28;20191;-77
2022/02/24 12:14:40;;;;;;;3.47;0.95;;;13.80;99.90;;;;;;4969469;28;20557;-78
2022/02/24 12:17:08;;;;;;;2.17;0.90;;;13.80;99.90;;;;;;4989877;28;20572;-78
2022/02/24 12:20:02;;;;;;;2.47;0.80;;;13.80;99.90;;;;;;4994472;28;20707;-79
2022/02/24 12:22:34;;;;;;;1.52;0.90;;;13.80;99.90;;;;;;4991680;28;20591;-78
2022/02/24 12:25:08;;;;;;;2.37;0.93;;;14.00;99.90;;;;;;4966123;28;20175;-78
2022/02/24 12:27:43;;;;;;;4.37;1.60;;;14.10;99.90;;;;;;4981944;28;20582;-78
2022/02/24 12:30:09;;;;;;;3.37;1.33;;;14.30;99.90;;;;;;4988680;28;21044;-78
2022/02/24 12:32:44;;;;;;;3.10;1.10;;;14.40;99.90;;;;;;4988764;28;20589;-78
2022/02/24 12:35:19;;;;;;;3.40;1.20;;;14.50;99.90;;;;;;4988012;28;20582;-77
2022/02/24 12:37:47;;;;;;;3.80;1.15;;;14.60;99.90;;;;;;4984963;28;21161;-77
2022/02/24 12:40:29;;;;;;;4.10;2.63;;;14.80;99.90;;;;;;4993414;28;20195;-77
2022/02/24 12:42:58;;;;;;;5.17;2.33;;;14.80;99.90;;;;;;4967712;28;20587;-77
2022/02/24 12:45:24;;;;;;;4.47;1.10;;;14.90;99.90;;;;;;4986006;28;20606;-78
2022/02/24 12:47:52;;;;;;;2.27;1.30;;;15.00;99.90;;;;;;4982682;28;20606;-78
2022/02/24 12:50:36;;;;;;;4.57;1.20;;;15.10;99.90;;;;;;4988548;28;20983;-77